FMMI/TNR METAR and TAF weather

Enter ICAO airport designator
Station Type Date Time Source
FMMI METAR 2021/01/20 23:30 UTC NOAA

FMMI 202330Z 10010KT 9999 FEW010 BKN020 20/19 Q1015 NOSIG


Station Type Date Time Source
FMMI Decoded METAR 2021/01/20 23:30 UTC NOAA

Antananarivo / Ivato, Madagascar (FMMI) 18-48S 047-29E 1276M
Jan 20, 2021 - 06:30 PM EST / 2021.01.20 2330 UTC
Wind: from the E (100 degrees) at 12 MPH (10 KT):0
Visibility: greater than 7 mile(s):0
Sky conditions: mostly cloudy
Temperature: 68 F (20 C)
Dew Point: 66 F (19 C)
Relative Humidity: 93%
Pressure (altimeter): 29.97 in. Hg (1015 hPa)
ob: FMMI 202330Z 10010KT 9999 FEW010 BKN020 20/19 Q1015 NOSIG
cycle: 23

Station Type Date Time Source
FMMI TAF 2021/01/20 18:06 UTC NOAA

TAF FMMI 201700Z 2018/2124 12010KT 9999 FEW010 SCT017CB BKN020
BECMG 2021/2023 FEW010 BKN020 PROB30
TEMPO 2100/2106 4000 RADZ
BECMG 2110/2112 SCT020CB PROB30
TEMPO 2115/2118 4500 TSRA

Example: see airport list